Time;durP1;ratioP1;P1;durP2;ratioP2;P2;SDS_P1;SDS_P2;PMS_P1;PMS_P2;Temp;Humidity;BMP_temperature;BMP_pressure;BME280_temperature;BME280_humidity;BME280_pressure;Samples;Min_cycle;Max_cycle;Signal;HPM_P1;HPM_P2
2022/04/27 00:00:21;;;;;;;4.78;1.90;;;9.40;93.70;;;;;;4989854;28;20050;-56
2022/04/27 00:02:48;;;;;;;7.55;1.90;;;9.40;94.60;;;;;;4974482;28;20096;-56
2022/04/27 00:05:14;;;;;;;4.10;1.90;;;9.40;95.10;;;;;;4992403;28;20041;-61
2022/04/27 00:07:39;;;;;;;4.43;2.00;;;9.30;95.50;;;;;;4987272;28;20449;-56
2022/04/27 00:10:06;;;;;;;8.38;1.92;;;9.40;95.80;;;;;;4993086;28;20557;-60
2022/04/27 00:12:36;;;;;;;4.22;2.00;;;9.40;96.10;;;;;;4990905;28;20113;-54
2022/04/27 00:15:03;;;;;;;6.50;1.77;;;9.40;96.20;;;;;;4995033;28;20082;-56
2022/04/27 00:17:33;;;;;;;4.18;1.80;;;9.40;96.10;;;;;;4970720;28;20069;-58
2022/04/27 00:19:58;;;;;;;5.03;2.00;;;9.30;96.30;;;;;;4983426;28;20493;-59
2022/04/27 00:22:25;;;;;;;9.07;2.08;;;9.30;96.70;;;;;;4980810;28;20033;-56
2022/04/27 00:24:50;;;;;;;4.72;1.75;;;9.30;96.80;;;;;;4990453;28;20096;-58
2022/04/27 00:27:16;;;;;;;5.38;1.88;;;9.30;97.00;;;;;;4976199;28;20432;-57
2022/04/27 00:29:42;;;;;;;4.32;1.67;;;9.30;97.20;;;;;;4988676;28;20054;-58
2022/04/27 00:32:08;;;;;;;6.65;1.80;;;9.30;97.40;;;;;;4991404;28;20077;-57
2022/04/27 00:34:34;;;;;;;5.65;2.30;;;9.40;97.60;;;;;;5001647;28;20137;-56
2022/04/27 00:37:00;;;;;;;7.20;2.10;;;9.30;97.80;;;;;;4986995;28;20564;-56
2022/04/27 00:39:25;;;;;;;11.45;2.60;;;9.30;98.00;;;;;;4995224;28;20046;-57
2022/04/27 00:42:00;;;;;;;7.47;2.50;;;9.40;98.30;;;;;;4960486;28;20129;-56
2022/04/27 00:44:31;;;;;;;6.93;2.40;;;9.30;98.50;;;;;;4993251;28;20048;-55
2022/04/27 00:46:57;;;;;;;11.73;3.67;;;9.30;98.60;;;;;;4984253;28;20128;-58
2022/04/27 00:49:24;;;;;;;7.60;2.65;;;9.30;98.80;;;;;;4998623;28;20046;-58
2022/04/27 00:51:50;;;;;;;5.75;2.47;;;9.30;99.00;;;;;;4988801;28;20141;-56
2022/04/27 00:54:18;;;;;;;9.32;3.72;;;9.30;99.20;;;;;;4995576;28;20040;-61
2022/04/27 00:56:44;;;;;;;8.88;3.10;;;9.30;99.40;;;;;;4985789;28;20038;-61
2022/04/27 00:59:10;;;;;;;7.97;2.75;;;9.30;99.60;;;;;;4994073;28;20049;-57
2022/04/27 01:01:36;;;;;;;7.57;2.30;;;9.30;99.70;;;;;;4977367;28;20049;-58
2022/04/27 01:04:05;;;;;;;6.70;2.72;;;9.30;99.90;;;;;;5004488;28;20041;-60
2022/04/27 01:06:31;;;;;;;10.65;2.88;;;9.30;99.90;;;;;;4996638;28;20092;-55
2022/04/27 01:08:56;;;;;;;8.65;3.60;;;9.30;99.90;;;;;;4995626;28;20120;-59
2022/04/27 01:11:22;;;;;;;11.55;3.72;;;9.30;99.90;;;;;;4996357;28;20042;-60
2022/04/27 01:13:48;;;;;;;6.53;3.17;;;9.30;99.90;;;;;;4993794;28;20168;-59
2022/04/27 01:16:14;;;;;;;7.45;3.10;;;9.30;99.90;;;;;;5000578;28;20038;-61
2022/04/27 01:18:39;;;;;;;9.65;3.45;;;9.30;99.90;;;;;;4985597;28;20117;-59
2022/04/27 01:21:06;;;;;;;6.57;2.47;;;9.30;99.90;;;;;;4987387;28;20038;-57
2022/04/27 01:23:31;;;;;;;6.35;2.53;;;9.30;99.90;;;;;;4996976;28;20069;-57
2022/04/27 01:26:05;;;;;;;5.75;2.65;;;9.30;99.90;;;;;;4999143;28;20041;-57
2022/04/27 01:28:33;;;;;;;9.15;3.05;;;9.30;99.90;;;;;;4992465;28;20045;-58
2022/04/27 01:31:07;;;;;;;8.63;3.13;;;9.30;99.90;;;;;;4995739;28;20786;-57
2022/04/27 01:33:34;;;;;;;7.25;2.72;;;9.30;99.90;;;;;;4980260;28;20041;-59
2022/04/27 01:36:01;;;;;;;6.25;2.58;;;9.30;99.90;;;;;;4985343;28;20041;-60
2022/04/27 01:38:27;;;;;;;7.68;3.00;;;9.30;99.90;;;;;;4986095;28;20497;-59
2022/04/27 01:40:56;;;;;;;6.18;2.65;;;9.30;99.90;;;;;;4992648;28;20049;-53
2022/04/27 01:43:24;;;;;;;11.20;2.95;;;9.30;99.90;;;;;;4973878;28;20672;-59
2022/04/27 01:45:53;;;;;;;7.25;2.80;;;9.20;99.90;;;;;;4994052;28;20062;-55
2022/04/27 01:48:19;;;;;;;8.77;3.03;;;9.20;99.90;;;;;;4988318;28;20393;-57
2022/04/27 01:50:45;;;;;;;7.53;2.88;;;9.20;99.90;;;;;;4985442;28;20035;-59
2022/04/27 01:55:55;;;;;;;;;;;9.20;99.90;;;;;;4995115;28;20496;-57
2022/04/27 01:58:22;;;;;;;6.38;2.05;;;9.20;99.90;;;;;;4975143;28;19924;-59
2022/04/27 02:00:48;;;;;;;5.88;2.55;;;9.20;99.90;;;;;;4993331;28;20540;-59
2022/04/27 02:03:18;;;;;;;7.63;2.53;;;9.20;99.90;;;;;;4983627;28;20038;-60
2022/04/27 02:05:44;;;;;;;4.13;2.13;;;9.20;99.90;;;;;;5000623;28;20046;-57
2022/04/27 02:08:10;;;;;;;5.97;2.58;;;9.20;99.90;;;;;;4993617;28;20377;-54
2022/04/27 02:10:37;;;;;;;5.53;2.90;;;9.30;99.90;;;;;;4979942;28;20509;-57
2022/04/27 02:13:04;;;;;;;4.47;2.30;;;9.30;99.90;;;;;;4968730;28;20076;-55
2022/04/27 02:15:30;;;;;;;3.88;2.22;;;9.30;99.90;;;;;;4985114;28;20480;-56
2022/04/27 02:17:56;;;;;;;4.22;2.10;;;9.20;99.00;;;;;;4987261;28;20060;-57
2022/04/27 02:20:23;;;;;;;5.00;2.08;;;9.20;98.60;;;;;;4964982;28;20041;-59
2022/04/27 02:22:49;;;;;;;5.90;2.10;;;9.20;98.70;;;;;;4972626;28;20045;-58
2022/04/27 02:25:15;;;;;;;5.75;2.25;;;9.20;98.10;;;;;;4975881;28;20120;-56
2022/04/27 02:27:42;;;;;;;5.15;1.80;;;9.20;97.70;;;;;;4988121;28;21436;-56
2022/04/27 02:30:09;;;;;;;6.28;1.98;;;9.20;97.30;;;;;;4993331;28;20198;-55
2022/04/27 02:32:35;;;;;;;2.47;1.63;;;9.20;97.30;;;;;;4981325;28;20034;-57
2022/04/27 02:35:00;;;;;;;4.50;1.60;;;9.20;96.50;;;;;;4956582;28;20540;-56
2022/04/27 02:37:27;;;;;;;3.25;1.77;;;9.20;96.30;;;;;;4992762;28;20030;-55
2022/04/27 02:39:52;;;;;;;3.72;1.58;;;9.20;95.90;;;;;;4972071;28;20046;-55
2022/04/27 02:42:18;;;;;;;3.63;1.95;;;9.20;95.40;;;;;;4973453;28;20045;-55
2022/04/27 02:44:44;;;;;;;4.75;2.20;;;9.20;95.50;;;;;;4987018;28;20128;-54
2022/04/27 02:47:10;;;;;;;5.88;2.55;;;9.20;95.90;;;;;;4994358;28;20042;-55
2022/04/27 02:52:20;;;;;;;6.18;2.22;;;9.20;96.10;;;;;;4970918;28;20054;-56
2022/04/27 02:54:46;;;;;;;2.75;1.67;;;9.20;95.60;;;;;;4987518;28;20061;-56
2022/04/27 02:57:12;;;;;;;3.50;2.00;;;9.20;95.60;;;;;;4997097;28;20034;-53
2022/04/27 02:59:38;;;;;;;3.20;1.90;;;9.20;95.70;;;;;;4994401;28;20044;-55
2022/04/27 03:02:04;;;;;;;2.42;1.58;;;9.20;95.10;;;;;;4996374;28;20045;-57
2022/04/27 03:04:29;;;;;;;6.88;2.20;;;9.20;94.90;;;;;;4983525;28;20099;-56
2022/04/27 03:06:55;;;;;;;3.67;1.85;;;9.20;95.20;;;;;;4981933;28;20046;-56
2022/04/27 03:09:21;;;;;;;4.55;1.90;;;9.20;95.00;;;;;;4995018;28;20050;-58
2022/04/27 03:11:47;;;;;;;6.53;1.90;;;9.20;95.00;;;;;;4981343;28;20125;-59
2022/04/27 03:14:13;;;;;;;3.63;1.73;;;9.20;95.00;;;;;;4985443;28;20053;-54
2022/04/27 03:16:38;;;;;;;3.80;1.85;;;9.20;95.00;;;;;;4980554;28;20053;-58
2022/04/27 03:19:04;;;;;;;3.83;1.83;;;9.20;95.20;;;;;;4985634;28;20472;-54
2022/04/27 03:21:32;;;;;;;3.97;1.85;;;9.30;95.20;;;;;;4993938;28;20033;-59
2022/04/27 03:23:58;;;;;;;4.30;2.00;;;9.30;94.70;;;;;;4987276;28;20034;-59
2022/04/27 03:26:24;;;;;;;4.55;1.70;;;9.20;94.40;;;;;;4990026;28;20519;-56
2022/04/27 03:28:50;;;;;;;5.60;2.33;;;9.20;94.20;;;;;;4987025;28;20493;-58
2022/04/27 03:31:16;;;;;;;4.45;1.70;;;9.20;94.00;;;;;;4980820;28;20234;-58
2022/04/27 03:33:41;;;;;;;3.78;2.10;;;9.20;94.40;;;;;;4991192;28;20064;-58
2022/04/27 03:36:11;;;;;;;4.47;1.77;;;9.20;94.30;;;;;;4976063;28;20041;-59
2022/04/27 03:38:38;;;;;;;4.60;1.95;;;9.20;94.00;;;;;;4988285;28;20120;-57
2022/04/27 03:41:04;;;;;;;4.55;2.10;;;9.20;93.90;;;;;;4991117;28;20046;-58
2022/04/27 03:43:30;;;;;;;3.60;1.73;;;9.20;93.90;;;;;;4994006;28;20056;-56
2022/04/27 03:45:56;;;;;;;3.80;1.50;;;9.20;94.20;;;;;;4992314;28;20042;-59
2022/04/27 03:48:22;;;;;;;3.78;1.80;;;9.20;94.20;;;;;;4970751;28;20044;-56
2022/04/27 03:50:47;;;;;;;7.15;2.22;;;9.20;93.90;;;;;;4986465;28;20084;-56
2022/04/27 03:53:13;;;;;;;5.47;2.10;;;9.20;93.90;;;;;;4992949;28;20136;-54
2022/04/27 03:55:39;;;;;;;3.75;1.83;;;9.10;93.70;;;;;;4977511;28;20109;-59
2022/04/27 03:58:05;;;;;;;3.67;1.70;;;9.20;93.80;;;;;;4993729;28;20030;-54
2022/04/27 04:00:32;;;;;;;5.20;1.92;;;9.20;94.00;;;;;;4987767;28;20050;-56
2022/04/27 04:03:00;;;;;;;4.57;1.58;;;9.20;94.20;;;;;;4989539;28;20392;-56
2022/04/27 04:05:26;;;;;;;8.77;1.88;;;9.20;94.10;;;;;;4986578;28;20149;-55
2022/04/27 04:07:51;;;;;;;2.42;1.58;;;9.20;94.00;;;;;;5000406;28;20505;-58
2022/04/27 04:10:17;;;;;;;3.97;1.92;;;9.20;94.30;;;;;;4977991;28;20104;-57
2022/04/27 04:12:46;;;;;;;4.60;2.38;;;9.20;94.30;;;;;;4989628;28;20030;-57
2022/04/27 04:15:13;;;;;;;4.85;2.15;;;9.20;94.30;;;;;;4994296;28;20037;-58
2022/04/27 04:17:45;;;;;;;3.70;2.00;;;9.20;94.50;;;;;;4983593;28;20092;-57
2022/04/27 04:20:17;;;;;;;3.90;2.30;;;9.20;94.80;;;;;;4988733;28;20053;-58
2022/04/27 04:22:44;;;;;;;4.93;2.53;;;9.20;95.00;;;;;;4992877;28;20038;-57
2022/04/27 04:30:40;;;;;;;6.13;2.50;;;9.10;95.90;;;;;;4998165;28;20046;-57
2022/04/27 04:33:07;;;;;;;5.40;2.65;;;9.10;96.00;;;;;;4992328;28;20451;-55
2022/04/27 04:35:33;;;;;;;4.78;2.60;;;9.10;95.80;;;;;;4980110;28;20137;-56
2022/04/27 04:37:59;;;;;;;8.85;3.03;;;9.10;96.00;;;;;;4978683;28;20136;-55
2022/04/27 04:40:25;;;;;;;5.45;2.88;;;9.10;96.10;;;;;;4996444;28;20042;-56
2022/04/27 04:42:52;;;;;;;6.45;2.55;;;9.10;96.30;;;;;;4993792;28;20503;-57
2022/04/27 04:45:18;;;;;;;5.10;2.45;;;9.10;96.40;;;;;;4994893;28;20049;-56
2022/04/27 04:47:43;;;;;;;6.03;3.17;;;9.10;96.50;;;;;;4990538;28;20180;-57
2022/04/27 04:50:10;;;;;;;5.75;2.92;;;9.10;96.50;;;;;;4993133;28;20254;-57
2022/04/27 04:52:37;;;;;;;4.95;2.63;;;9.20;96.40;;;;;;4976552;28;20038;-55
2022/04/27 04:55:03;;;;;;;6.35;2.72;;;9.20;96.50;;;;;;4995733;28;20125;-59
2022/04/27 04:57:29;;;;;;;9.27;4.75;;;9.20;96.60;;;;;;4988886;28;20612;-58
2022/04/27 04:59:55;;;;;;;4.95;3.10;;;9.10;96.50;;;;;;4991516;28;20104;-58
2022/04/27 05:02:21;;;;;;;3.88;2.30;;;9.10;96.60;;;;;;4974849;28;20105;-55
2022/04/27 05:04:47;;;;;;;7.07;2.92;;;9.20;96.70;;;;;;4994761;28;20049;-57
2022/04/27 05:07:13;;;;;;;6.93;3.45;;;9.20;96.60;;;;;;4981042;28;20046;-59
2022/04/27 05:09:39;;;;;;;9.20;3.28;;;9.20;96.60;;;;;;4976428;28;20057;-58
2022/04/27 05:12:05;;;;;;;7.20;2.90;;;9.20;96.60;;;;;;4990959;28;20121;-58
2022/04/27 05:14:31;;;;;;;4.72;3.15;;;9.20;96.60;;;;;;4995983;28;20334;-55
2022/04/27 05:16:57;;;;;;;9.23;3.03;;;9.20;96.60;;;;;;4996951;28;20476;-57
2022/04/27 05:19:23;;;;;;;6.78;3.22;;;9.20;96.60;;;;;;4990479;28;20045;-56
2022/04/27 05:21:49;;;;;;;8.73;3.40;;;9.30;96.70;;;;;;4969689;28;20030;-58
2022/04/27 05:24:15;;;;;;;5.47;2.92;;;9.30;96.60;;;;;;4983825;28;20464;-56
2022/04/27 05:26:41;;;;;;;5.55;2.92;;;9.20;96.40;;;;;;4993657;28;20100;-56
2022/04/27 05:31:54;;;;;;;8.35;3.60;;;9.30;96.40;;;;;;4986342;28;20068;-56
2022/04/27 05:34:21;;;;;;;5.75;3.15;;;9.30;96.50;;;;;;4991960;28;20125;-57
2022/04/27 05:36:47;;;;;;;4.55;2.63;;;9.30;96.50;;;;;;4991190;28;20565;-57
2022/04/27 05:39:13;;;;;;;4.63;2.45;;;9.40;96.70;;;;;;4960923;28;20037;-54
2022/04/27 05:41:39;;;;;;;8.25;3.97;;;9.40;96.70;;;;;;4977581;28;20565;-59
2022/04/27 05:44:09;;;;;;;5.80;3.50;;;9.40;96.80;;;;;;4977360;28;20123;-58
2022/04/27 05:46:41;;;;;;;5.53;3.45;;;9.40;96.70;;;;;;4982747;28;20168;-55
2022/04/27 05:49:07;;;;;;;6.05;3.53;;;9.50;96.90;;;;;;4989350;28;20061;-54
2022/04/27 05:51:33;;;;;;;8.52;3.42;;;9.40;97.00;;;;;;4967724;28;20336;-58
2022/04/27 05:53:59;;;;;;;4.75;3.40;;;9.40;97.00;;;;;;4996638;28;20042;-54
2022/04/27 05:56:25;;;;;;;7.30;2.97;;;9.50;97.00;;;;;;4981264;28;20034;-56
2022/04/27 05:58:51;;;;;;;5.18;3.08;;;9.50;96.70;;;;;;5003282;28;20190;-57
2022/04/27 06:01:18;;;;;;;4.47;3.05;;;9.50;96.70;;;;;;4991208;28;20412;-56
2022/04/27 06:03:44;;;;;;;5.18;2.90;;;9.50;96.50;;;;;;4979320;28;20050;-56
2022/04/27 06:06:10;;;;;;;10.20;3.05;;;9.50;96.10;;;;;;4974395;28;20052;-54
2022/04/27 06:08:35;;;;;;;6.70;2.65;;;9.50;95.60;;;;;;4970428;28;20057;-56
2022/04/27 06:11:01;;;;;;;4.60;3.10;;;9.50;95.50;;;;;;4984487;28;20421;-54
2022/04/27 06:13:27;;;;;;;6.55;3.50;;;9.50;95.50;;;;;;4964959;28;20044;-59
2022/04/27 06:15:53;;;;;;;7.57;3.58;;;9.50;95.50;;;;;;4992538;28;20080;-55
2022/04/27 06:18:18;;;;;;;7.45;3.78;;;9.50;95.50;;;;;;4993080;28;20034;-57
2022/04/27 06:20:44;;;;;;;8.52;4.10;;;9.50;95.60;;;;;;4980981;28;20121;-57
2022/04/27 06:23:10;;;;;;;8.57;3.60;;;9.50;95.80;;;;;;4987622;28;20125;-54
2022/04/27 06:25:39;;;;;;;6.30;2.90;;;9.50;95.90;;;;;;5001114;28;20041;-53
2022/04/27 06:28:05;;;;;;;10.02;3.83;;;9.50;95.90;;;;;;4982383;28;20048;-56
2022/04/27 06:30:32;;;;;;;11.90;3.90;;;9.50;95.90;;;;;;4980159;28;20060;-58
2022/04/27 06:32:58;;;;;;;14.07;3.38;;;9.50;96.10;;;;;;5009954;28;20085;-57
2022/04/27 06:35:24;;;;;;;8.77;4.00;;;9.60;96.30;;;;;;4988995;28;20046;-58
2022/04/27 06:37:50;;;;;;;7.53;3.60;;;9.60;96.40;;;;;;4988671;28;20431;-56
2022/04/27 06:40:15;;;;;;;6.70;3.60;;;9.60;96.50;;;;;;4991570;28;20050;-56
2022/04/27 06:42:42;;;;;;;10.63;4.45;;;9.70;96.70;;;;;;4975665;28;20042;-57
2022/04/27 06:45:09;;;;;;;7.93;4.13;;;9.70;96.80;;;;;;5006235;28;20060;-57
2022/04/27 06:47:35;;;;;;;7.85;4.82;;;9.70;96.90;;;;;;4980103;28;20042;-55
2022/04/27 06:50:00;;;;;;;8.27;3.88;;;9.70;97.00;;;;;;4994408;28;20042;-58
2022/04/27 06:52:27;;;;;;;6.95;4.35;;;9.80;97.20;;;;;;4975985;28;20049;-58
2022/04/27 06:54:52;;;;;;;11.05;3.47;;;9.70;97.20;;;;;;4994049;28;20100;-57
2022/04/27 06:57:18;;;;;;;7.90;3.85;;;9.80;97.20;;;;;;4981136;28;20026;-57
2022/04/27 06:59:44;;;;;;;13.45;4.15;;;9.70;96.90;;;;;;4979239;28;20131;-57
2022/04/27 07:02:12;;;;;;;7.63;2.95;;;9.70;96.90;;;;;;4966956;28;20140;-56
2022/04/27 07:04:40;;;;;;;6.47;3.55;;;9.70;96.90;;;;;;4990048;28;20128;-56
2022/04/27 07:07:07;;;;;;;13.80;3.55;;;9.70;96.90;;;;;;4995053;28;20202;-61
2022/04/27 07:09:33;;;;;;;11.20;3.33;;;9.80;96.80;;;;;;4998266;28;20278;-57
2022/04/27 07:11:59;;;;;;;9.27;3.40;;;9.80;96.70;;;;;;4976977;28;20053;-57
2022/04/27 07:14:25;;;;;;;18.42;3.90;;;9.80;96.70;;;;;;4975712;28;20112;-56
2022/04/27 07:16:50;;;;;;;10.15;3.33;;;9.80;96.80;;;;;;4991821;28;20037;-57
2022/04/27 07:19:17;;;;;;;12.95;3.88;;;9.90;97.00;;;;;;4978286;28;20042;-58
2022/04/27 07:21:43;;;;;;;17.10;3.70;;;9.90;97.10;;;;;;4974285;28;20337;-60
2022/04/27 07:24:09;;;;;;;11.20;3.25;;;9.90;97.00;;;;;;4983900;28;20045;-56
2022/04/27 07:26:35;;;;;;;12.50;3.00;;;9.90;97.10;;;;;;4974441;28;20053;-55
2022/04/27 07:29:01;;;;;;;8.02;3.10;;;9.90;96.90;;;;;;4964629;28;20045;-56
2022/04/27 07:31:26;;;;;;;13.60;3.58;;;9.90;96.90;;;;;;4993825;28;20381;-57
2022/04/27 07:33:53;;;;;;;15.70;3.85;;;9.90;96.70;;;;;;4995798;28;20046;-60
2022/04/27 07:36:19;;;;;;;10.57;2.70;;;9.90;96.70;;;;;;5002967;28;20084;-60
2022/04/27 07:38:44;;;;;;;10.25;3.10;;;10.00;97.10;;;;;;4991588;28;20457;-59
2022/04/27 07:41:11;;;;;;;12.52;2.83;;;10.00;96.70;;;;;;4998453;28;20104;-58
2022/04/27 07:43:37;;;;;;;15.57;5.07;;;10.00;96.60;;;;;;5002158;28;20133;-57
2022/04/27 07:46:05;;;;;;;16.27;3.20;;;10.10;96.60;;;;;;5016472;28;20070;-58
2022/04/27 07:48:32;;;;;;;19.60;4.03;;;10.10;96.50;;;;;;4994956;28;20056;-56
2022/04/27 07:51:00;;;;;;;18.45;4.78;;;10.10;96.60;;;;;;4996344;28;20046;-61
2022/04/27 07:53:26;;;;;;;15.95;4.00;;;10.10;96.60;;;;;;4989141;28;20120;-57
2022/04/27 07:55:52;;;;;;;11.13;3.00;;;10.20;96.10;;;;;;4987076;28;20512;-57
2022/04/27 07:58:18;;;;;;;17.67;3.38;;;10.20;95.90;;;;;;5003036;28;21686;-58
2022/04/27 08:00:44;;;;;;;15.05;3.38;;;10.20;95.50;;;;;;5003675;28;20049;-58
2022/04/27 08:03:09;;;;;;;9.88;2.80;;;10.10;95.10;;;;;;4995198;28;20046;-56
2022/04/27 08:05:35;;;;;;;8.05;2.53;;;10.10;94.80;;;;;;4998483;28;20045;-57
2022/04/27 08:08:01;;;;;;;12.95;3.08;;;10.20;94.90;;;;;;4988532;28;20367;-60
2022/04/27 08:10:27;;;;;;;9.43;3.20;;;10.30;95.20;;;;;;5006013;28;20100;-56
2022/04/27 08:12:53;;;;;;;8.18;3.05;;;10.30;95.10;;;;;;5000011;28;20045;-58
2022/04/27 08:15:21;;;;;;;11.45;2.80;;;10.40;94.80;;;;;;5004702;28;20116;-57
2022/04/27 08:17:55;;;;;;;8.18;2.58;;;10.50;94.70;;;;;;4999346;23;20404;-57
2022/04/27 08:23:13;;;;;;;13.30;2.60;;;10.60;94.60;;;;;;4989905;28;20041;-57
2022/04/27 08:25:39;;;;;;;13.75;2.90;;;10.50;93.90;;;;;;4999810;28;20082;-56
2022/04/27 08:28:06;;;;;;;12.32;2.80;;;10.60;93.70;;;;;;5002508;28;20069;-57
2022/04/27 08:30:37;;;;;;;15.90;2.75;;;10.50;93.60;;;;;;4994943;28;20199;-56
2022/04/27 08:33:04;;;;;;;9.52;2.38;;;10.60;93.80;;;;;;5001364;28;20049;-56
2022/04/27 08:35:31;;;;;;;12.68;2.80;;;10.70;94.10;;;;;;4997783;28;20041;-56
2022/04/27 08:37:58;;;;;;;15.77;3.15;;;10.80;94.10;;;;;;4985808;28;20034;-56
2022/04/27 08:40:24;;;;;;;14.32;2.80;;;10.90;94.10;;;;;;4983105;28;20038;-56
2022/04/27 08:42:53;;;;;;;16.63;3.08;;;11.00;93.60;;;;;;4985016;28;20506;-59
2022/04/27 08:45:20;;;;;;;12.75;3.38;;;11.00;93.10;;;;;;5004363;28;20046;-57
2022/04/27 08:47:47;;;;;;;10.88;2.63;;;11.00;92.80;;;;;;5005688;28;20133;-54
2022/04/27 08:50:21;;;;;;;10.05;2.60;;;11.00;92.90;;;;;;5003103;28;20041;-57
2022/04/27 08:52:47;;;;;;;;;;;11.10;93.00;;;;;;5002230;28;20093;-55
2022/04/27 08:55:14;;;;;;;13.27;2.75;;;11.10;92.80;;;;;;5003400;28;20534;-58
2022/04/27 08:57:40;;;;;;;14.02;2.65;;;11.10;92.70;;;;;;4998609;28;20120;-59
2022/04/27 09:00:08;;;;;;;9.90;2.30;;;11.20;92.70;;;;;;5002935;28;20061;-58
2022/04/27 09:02:35;;;;;;;13.48;2.45;;;11.30;92.80;;;;;;4988110;28;20045;-53
2022/04/27 09:05:11;;;;;;;13.80;2.60;;;11.30;92.30;;;;;;4991043;28;20060;-58
2022/04/27 09:07:42;;;;;;;16.80;2.63;;;11.40;92.00;;;;;;4983115;28;20288;-58
2022/04/27 09:10:11;;;;;;;18.23;2.85;;;11.40;91.90;;;;;;5002119;28;20034;-58
2022/04/27 09:12:48;;;;;;;12.50;2.70;;;11.40;91.90;;;;;;5005625;28;20038;-58
2022/04/27 09:15:16;;;;;;;12.25;3.28;;;11.40;91.60;;;;;;5001959;28;20080;-56
2022/04/27 09:23:21;;;;;;;;;;;11.30;91.00;;;;;;5006296;28;20120;-54
2022/04/27 09:25:49;;;;;;;9.23;2.90;;;11.30;91.30;;;;;;4987268;28;19937;-58
2022/04/27 09:28:15;;;;;;;14.20;2.60;;;11.40;91.70;;;;;;5006822;28;20110;-56
2022/04/27 09:30:43;;;;;;;10.52;2.60;;;11.40;91.20;;;;;;5004268;28;20125;-57
2022/04/27 09:33:09;;;;;;;8.40;2.40;;;11.50;91.10;;;;;;5002286;28;20049;-56
2022/04/27 09:35:37;;;;;;;11.00;2.80;;;11.50;90.70;;;;;;4995480;28;21226;-54
2022/04/27 09:38:17;;;;;;;8.65;2.55;;;11.50;90.90;;;;;;4998581;28;20049;-59
2022/04/27 09:40:54;;;;;;;8.15;2.38;;;11.60;90.80;;;;;;5003885;28;20129;-59
2022/04/27 09:43:42;;;;;;;7.93;2.00;;;11.60;90.80;;;;;;5005659;28;20057;-57
2022/04/27 09:46:25;;;;;;;11.27;2.85;;;11.70;90.50;;;;;;5005184;28;20164;-59
2022/04/27 09:49:14;;;;;;;12.05;3.45;;;11.60;89.90;;;;;;5004335;28;20030;-58
2022/04/27 09:51:54;;;;;;;11.55;2.50;;;11.60;90.40;;;;;;4998204;28;20074;-59
2022/04/27 09:54:24;;;;;;;11.07;2.58;;;11.80;90.10;;;;;;4985509;28;20117;-58
2022/04/27 09:56:55;;;;;;;11.27;2.85;;;11.80;89.70;;;;;;5012201;28;20542;-58
2022/04/27 09:59:32;;;;;;;10.30;2.35;;;12.00;89.80;;;;;;5001186;28;20042;-57
2022/04/27 10:02:19;;;;;;;11.27;2.70;;;11.80;87.40;;;;;;5007956;28;20456;-58
2022/04/27 10:04:45;;;;;;;12.57;2.97;;;11.90;88.50;;;;;;4997200;28;20064;-55
2022/04/27 10:07:13;;;;;;;10.32;2.50;;;12.10;87.60;;;;;;5008080;28;20041;-59
2022/04/27 10:09:39;;;;;;;9.07;2.58;;;12.30;87.30;;;;;;5007123;28;20046;-58
2022/04/27 10:12:07;;;;;;;7.00;2.38;;;12.40;87.10;;;;;;5006201;28;20480;-54
2022/04/27 10:14:33;;;;;;;10.30;2.13;;;12.40;86.60;;;;;;5005617;28;20243;-58
2022/04/27 10:16:59;;;;;;;11.82;2.90;;;12.50;86.90;;;;;;4988422;28;20391;-56
2022/04/27 10:19:25;;;;;;;11.63;2.53;;;12.60;86.10;;;;;;5000359;28;20037;-56
2022/04/27 10:21:59;;;;;;;8.80;2.08;;;12.60;86.30;;;;;;5002388;28;20189;-58
2022/04/27 10:24:34;;;;;;;8.93;2.40;;;12.70;86.30;;;;;;4996883;28;20411;-59
2022/04/27 10:27:23;;;;;;;8.88;2.15;;;12.60;84.40;;;;;;5002703;28;20050;-57
2022/04/27 10:30:05;;;;;;;7.47;2.60;;;12.50;84.50;;;;;;4990665;28;20042;-58
2022/04/27 10:32:35;;;;;;;7.90;2.95;;;12.50;84.60;;;;;;5002754;28;20504;-58
2022/04/27 10:35:21;;;;;;;11.20;4.88;;;12.30;83.90;;;;;;4993280;28;20125;-58
2022/04/27 10:37:47;;;;;;;10.23;6.75;;;12.20;83.40;;;;;;4990130;28;20393;-59
2022/04/27 10:40:25;;;;;;;12.88;7.95;;;11.80;81.90;;;;;;4990443;28;20045;-57
2022/04/27 10:42:51;;;;;;;9.82;4.97;;;11.80;83.70;;;;;;4993148;28;20034;-59
2022/04/27 10:45:23;;;;;;;15.32;3.83;;;11.70;84.20;;;;;;4988407;28;20100;-55
2022/04/27 10:47:50;;;;;;;10.18;3.92;;;11.70;84.50;;;;;;4988402;28;20069;-60
2022/04/27 10:50:18;;;;;;;8.07;3.80;;;11.80;84.60;;;;;;4990198;28;20757;-59
2022/04/27 10:52:51;;;;;;;15.25;10.32;;;11.80;84.80;;;;;;4999426;28;20283;-58
2022/04/27 10:55:38;;;;;;;16.10;8.23;;;11.80;83.20;;;;;;4998512;28;20042;-57
2022/04/27 10:58:36;;;;;;;14.23;5.63;;;11.80;83.70;;;;;;4992179;28;20492;-58
2022/04/27 11:01:11;;;;;;;12.88;3.60;;;11.80;82.60;;;;;;4994763;28;20042;-57
2022/04/27 11:03:39;;;;;;;10.05;2.50;;;11.70;83.50;;;;;;4993672;28;20088;-58
2022/04/27 11:06:07;;;;;;;13.98;4.03;;;11.80;84.10;;;;;;4992796;28;20815;-55
2022/04/27 11:08:35;;;;;;;7.70;2.53;;;11.90;84.60;;;;;;4990103;28;20149;-57
2022/04/27 11:11:09;;;;;;;12.63;3.65;;;12.00;84.80;;;;;;4987112;28;20046;-57
2022/04/27 11:13:37;;;;;;;13.90;4.60;;;12.00;83.90;;;;;;4988060;28;20034;-56
2022/04/27 11:16:13;;;;;;;11.80;4.78;;;11.90;83.90;;;;;;4994901;28;20125;-58
2022/04/27 11:18:56;;;;;;;11.98;3.58;;;11.70;84.10;;;;;;4987224;28;20045;-58
2022/04/27 11:21:29;;;;;;;9.13;3.90;;;11.60;85.00;;;;;;4992838;28;20176;-57
2022/04/27 11:23:57;;;;;;;10.25;4.78;;;11.60;85.40;;;;;;4999988;28;20037;-60
2022/04/27 11:26:22;;;;;;;10.93;2.85;;;11.70;85.30;;;;;;4996285;28;20041;-57
2022/04/27 11:28:49;;;;;;;8.48;3.17;;;11.80;85.30;;;;;;4963770;28;20049;-57
2022/04/27 11:31:16;;;;;;;11.93;3.15;;;11.90;84.80;;;;;;4996983;28;20063;-58
2022/04/27 11:33:42;;;;;;;13.02;3.72;;;11.70;81.80;;;;;;5007862;28;20053;-57
2022/04/27 11:36:19;;;;;;;17.27;7.13;;;11.50;83.30;;;;;;4984196;28;20037;-55
2022/04/27 11:38:45;;;;;;;15.05;9.77;;;11.60;83.20;;;;;;4989883;28;21340;-56
2022/04/27 11:41:19;;;;;;;15.45;12.27;;;11.70;83.60;;;;;;4994401;28;20034;-55
2022/04/27 11:43:46;;;;;;;17.13;7.25;;;11.90;84.40;;;;;;5001204;28;20389;-58
2022/04/27 11:46:12;;;;;;;11.13;3.30;;;11.90;83.90;;;;;;4998325;28;20050;-56
2022/04/27 11:48:38;;;;;;;8.77;3.60;;;12.10;84.20;;;;;;4986055;28;20097;-59
2022/04/27 11:51:06;;;;;;;8.82;2.15;;;12.20;82.90;;;;;;4997814;28;20065;-59
2022/04/27 11:53:43;;;;;;;9.93;3.60;;;12.30;82.70;;;;;;4979819;28;20041;-58
2022/04/27 11:56:09;;;;;;;7.85;3.78;;;12.10;81.50;;;;;;4990721;28;20038;-58
2022/04/27 11:58:35;;;;;;;9.65;3.55;;;12.20;81.80;;;;;;5003402;28;20038;-56
2022/04/27 12:01:01;;;;;;;11.13;2.60;;;12.20;82.30;;;;;;5002906;28;20049;-57
2022/04/27 12:03:30;;;;;;;7.47;2.92;;;12.30;81.30;;;;;;4997391;28;20049;-58
2022/04/27 12:05:56;;;;;;;12.07;4.50;;;12.30;80.90;;;;;;4998212;28;20500;-57
2022/04/27 12:08:26;;;;;;;8.55;2.50;;;12.20;80.80;;;;;;4993359;28;20054;-61
2022/04/27 12:10:52;;;;;;;9.20;3.15;;;12.40;81.60;;;;;;5000633;28;20081;-56
2022/04/27 12:13:20;;;;;;;12.02;2.83;;;12.40;81.10;;;;;;4997791;28;20117;-59
2022/04/27 12:15:51;;;;;;;10.70;2.97;;;12.40;81.00;;;;;;4995415;28;20053;-58
2022/04/27 12:18:25;;;;;;;7.97;2.70;;;12.50;81.00;;;;;;4997435;28;20050;-57
2022/04/27 12:20:51;;;;;;;;;;;12.60;80.60;;;;;;4981057;28;20042;-59
2022/04/27 12:23:24;;;;;;;10.57;2.70;;;12.60;78.30;;;;;;4998074;28;19926;-56
2022/04/27 12:25:57;;;;;;;10.85;3.08;;;12.60;80.30;;;;;;4999750;28;20455;-60
2022/04/27 12:28:24;;;;;;;10.57;2.58;;;12.70;80.90;;;;;;4997098;28;20060;-59
2022/04/27 12:31:08;;;;;;;11.60;2.50;;;12.80;80.60;;;;;;5006478;28;20056;-58
2022/04/27 12:33:36;;;;;;;10.15;2.53;;;12.80;79.20;;;;;;4997945;28;20120;-58
2022/04/27 12:39:03;;;;;;;9.25;4.80;;;12.80;78.00;;;;;;5005467;28;20042;-59
2022/04/27 12:41:30;;;;;;;10.02;2.67;;;12.70;77.50;;;;;;5001197;28;20100;-58
2022/04/27 12:44:05;;;;;;;10.63;3.75;;;12.70;78.00;;;;;;4996710;28;20050;-60
2022/04/27 12:46:30;;;;;;;10.27;3.95;;;12.70;76.30;;;;;;5001727;28;20086;-59
2022/04/27 12:49:01;;;;;;;11.48;2.83;;;12.60;75.70;;;;;;5000447;28;20436;-60
2022/04/27 12:51:29;;;;;;;10.90;3.30;;;12.60;76.90;;;;;;5006998;28;20117;-58
2022/04/27 12:53:57;;;;;;;11.20;5.45;;;12.60;75.60;;;;;;4979084;28;20100;-58
2022/04/27 12:56:39;;;;;;;7.80;2.72;;;12.50;75.70;;;;;;4998935;28;20428;-56
2022/04/27 12:59:06;;;;;;;5.95;2.40;;;12.50;77.00;;;;;;5001407;28;20068;-60
2022/04/27 13:01:32;;;;;;;12.75;4.60;;;12.60;77.60;;;;;;5005459;28;20050;-58
2022/04/27 13:03:58;;;;;;;7.85;3.70;;;12.70;77.20;;;;;;4998882;28;20439;-58
2022/04/27 13:06:24;;;;;;;7.28;4.25;;;12.70;77.00;;;;;;5006452;28;20064;-58
2022/04/27 13:08:51;;;;;;;7.13;2.67;;;12.70;76.70;;;;;;5000525;28;20201;-59
2022/04/27 13:14:05;;;;;;;7.15;2.22;;;12.60;76.20;;;;;;4998280;28;20085;-59
2022/04/27 13:16:31;;;;;;;9.45;2.33;;;12.60;77.20;;;;;;4989352;28;20124;-59
2022/04/27 13:18:57;;;;;;;8.80;2.47;;;12.60;77.50;;;;;;4998494;28;20042;-57
2022/04/27 13:21:23;;;;;;;9.95;2.78;;;12.70;77.40;;;;;;4992562;28;20065;-59